Hauptseite
METAR-TAF:

METAR-TAF

Flughäfen :

Innsbruck, Österreich

Flughafen Innsbruck

Breite: 47-16N, Länge: 011-21E, Höhe: 581 m

Beobachtung

Neuester Wetterbericht von vor 29 Minuten, um 20:20 UTC
Wind 2 kt aus West
Temperatur -8°C
Luftfeuchtigkeit 92%
Luftdruck 1021 hPa
Sichtweite 10 km oder mehr
keine Wolken unter 1500 m und keine Kumulonimbus oder Gewitterwolken

METAR: LOWI 232020Z 27002KT CAVOK M08/M09 Q1021 NOSIG

Zeit: 21:49 (20:49 UTC)

Prognose

Neuester Wetterbericht von vor 3 Stunden und 34 Minuten, um 17:15 UTC
Gültige Prognose vom 23 um 18 UTC bis 24 um 18 UTC
Wind 2 kt aus unterschiedlichen Richtungen
Sichtweite 10 km oder mehr
keine Wolken unter 1500 m und keine Kumulonimbus oder Gewitterwolken
Zeitweise
vom 24 um 12 UTC bis 24 um 15 UTC
Wind 6 kt aus Ost

TAF: LOWI 231715Z 2318/2418 VRB02KT CAVOK TX01/2412Z TNM12/2406Z TEMPO 2412/2415 10006KT

Wetterbeobachtungen und Prognosen von mehr als 4000 Flughäfen (METAR und TAF Bericht).

Die verfügbaren Stationen werden durch gelbe und rote Markierungen auf der Karte dargestellt.

Führen Sie die Maus auf sie, um den Namen der Station zu sehen.

Darauf klicken, um die Beobachtung von Wetterbeobachtungen und Prognosen zu sehen.

Um die Karte zu ändern : klicken Sie auf den grünen Tasten mit einem schwarzen Kreuz Zum Vergrößern, auf den grünen Button mit einem Gedankenstrich zu verkleinern, oder auf die grünen Pfeile für benachbarte Karten.


METAR-TAF: